Pomona, Illinois
Current Conditions -  °F | °C
As of 5:52 AM on Friday 28 Nov 2014 (Local Time) from KMDH Reporting Station
Clear Clear  
Wind Chill: -7°   Ceiling: Unl
Heat Index: -4°   Visibility: 8mi
Dew Point: -6°   Wind: 5mph
Humidity: 88%   Direction: 150°SSE
Pressure: 30.36"   Gusts: NA
Location:  37.63°N, 89.34°W
Report Text: KMDH 281152Z AUTO 15004KT 8SM CLR M04/M06 A3036 RMK AO2 SLP287 T10391056 11028 21044 56021
Loading
Personal Weather Stations






























Interactive Weather Map New forecast layout! Learn more

10-Day Weather Forecast

Advertisements
Track Severe Weather on mobile